createdAt,value
2022-09-11T00:01:00.663Z,99385.00
2022-09-11T00:02:35.617Z,99383.00
2022-09-11T00:04:09.413Z,99377.00
2022-09-11T00:05:46.934Z,99380.00
2022-09-11T00:07:20.268Z,99388.00
2022-09-11T00:09:03.321Z,99383.00
2022-09-11T00:10:41.683Z,99381.00
2022-09-11T00:12:17.730Z,99381.00
2022-09-11T00:13:55.009Z,99384.00
2022-09-11T00:15:28.682Z,99379.00
2022-09-11T00:17:08.932Z,99388.00
2022-09-11T00:18:42.261Z,99383.00
2022-09-11T00:20:14.756Z,99386.00
2022-09-11T00:21:50.353Z,99384.00
2022-09-11T00:23:29.525Z,99386.00
2022-09-11T00:25:04.408Z,99376.00
2022-09-11T00:26:40.741Z,99379.00
2022-09-11T00:28:15.895Z,99381.00
2022-09-11T00:29:49.658Z,99379.00
2022-09-11T00:31:25.152Z,99383.00
2022-09-11T00:33:06.352Z,99386.00
2022-09-11T00:34:39.917Z,99382.00
2022-09-11T00:36:19.128Z,99383.00
2022-09-11T00:37:52.706Z,99381.00
2022-09-11T00:39:26.482Z,99380.00
2022-09-11T00:41:01.767Z,99382.00
2022-09-11T00:42:38.053Z,99392.00
2022-09-11T00:45:00.397Z,99396.00
2022-09-11T00:46:45.674Z,99394.00
2022-09-11T00:48:24.818Z,99397.00
2022-09-11T00:50:14.399Z,99384.00
2022-09-11T00:51:53.400Z,99392.00
2022-09-11T00:53:32.958Z,99388.00
2022-09-11T00:55:18.673Z,99387.00
2022-09-11T00:56:57.913Z,99392.00
2022-09-11T00:58:41.150Z,99390.00
2022-09-11T01:00:19.270Z,99388.00
2022-09-11T01:02:00.049Z,99389.00
2022-09-11T01:03:39.462Z,99393.00
2022-09-11T01:05:17.963Z,99391.00
2022-09-11T01:07:00.174Z,99391.00
2022-09-11T01:08:38.495Z,99389.00
2022-09-11T01:10:17.103Z,99385.00
2022-09-11T01:12:05.313Z,99392.00
2022-09-11T01:13:54.629Z,99389.00
2022-09-11T01:15:45.525Z,99397.00
2022-09-11T01:17:29.835Z,99397.00
2022-09-11T01:19:24.876Z,99404.00
2022-09-11T01:21:33.887Z,99400.00
2022-09-11T01:23:58.489Z,99396.00
2022-09-11T01:25:59.770Z,99401.00
2022-09-11T01:27:55.613Z,99401.00
2022-09-11T01:29:39.315Z,99400.00
2022-09-11T01:31:22.456Z,99407.00
2022-09-11T01:33:17.235Z,99405.00
2022-09-11T01:35:02.793Z,99411.00
2022-09-11T01:36:48.583Z,99405.00
2022-09-11T01:38:33.833Z,99415.00
2022-09-11T01:40:21.832Z,99409.00
2022-09-11T01:42:04.224Z,99418.00
2022-09-11T01:43:47.594Z,99421.00
2022-09-11T01:45:25.425Z,99421.00
2022-09-11T01:47:00.608Z,99423.00
2022-09-11T01:48:45.616Z,99425.00
2022-09-11T01:50:23.617Z,99428.00
2022-09-11T01:52:04.449Z,99423.00
2022-09-11T01:53:50.012Z,99434.00
2022-09-11T01:55:31.886Z,99430.00
2022-09-11T01:57:17.937Z,99438.00
2022-09-11T01:58:59.645Z,99431.00
2022-09-11T02:00:37.246Z,99429.00
2022-09-11T02:02:24.859Z,99433.00
2022-09-11T02:04:11.410Z,99441.00
2022-09-11T02:05:54.904Z,99435.00
2022-09-11T02:07:39.573Z,99439.00
2022-09-11T02:09:28.488Z,99437.00
2022-09-11T02:11:07.112Z,99434.00
2022-09-11T02:12:51.076Z,99439.00
2022-09-11T02:14:33.031Z,99447.00
2022-09-11T02:16:15.556Z,99446.00
2022-09-11T02:18:01.803Z,99445.00
2022-09-11T02:19:39.689Z,99451.00
2022-09-11T02:21:13.205Z,99444.00
2022-09-11T02:22:46.465Z,99449.00
2022-09-11T02:24:25.491Z,99451.00
2022-09-11T02:25:59.873Z,99454.00
2022-09-11T02:27:33.774Z,99450.00
2022-09-11T02:29:10.465Z,99451.00
2022-09-11T02:30:48.586Z,99452.00
2022-09-11T02:32:24.708Z,99449.00
2022-09-11T02:34:00.929Z,99445.00
2022-09-11T02:35:47.299Z,99436.00
2022-09-11T02:37:39.105Z,99444.00
2022-09-11T02:39:35.936Z,99443.00
2022-09-11T02:41:22.855Z,99440.00
2022-09-11T02:43:33.757Z,99447.00
2022-09-11T02:45:28.873Z,99441.00
2022-09-11T02:47:20.350Z,99445.00
2022-09-11T02:49:07.835Z,99450.00
2022-09-11T02:50:50.151Z,99449.00
2022-09-11T02:52:42.049Z,99441.00
2022-09-11T02:54:30.216Z,99456.00
2022-09-11T02:56:14.289Z,99444.00
2022-09-11T02:57:57.362Z,99460.00
2022-09-11T03:00:45.037Z,99463.00
2022-09-11T03:02:21.137Z,99459.00
2022-09-11T03:03:58.165Z,99464.00
2022-09-11T03:05:31.125Z,99467.00
2022-09-11T03:07:05.601Z,99461.00
2022-09-11T03:08:38.971Z,99465.00
2022-09-11T03:10:12.647Z,99468.00
2022-09-11T03:11:50.075Z,99468.00
2022-09-11T03:13:23.534Z,99466.00
2022-09-11T03:14:58.451Z,99464.00
2022-09-11T03:16:36.351Z,99461.00
2022-09-11T03:18:13.594Z,99466.00
2022-09-11T03:19:46.200Z,99459.00
2022-09-11T03:21:20.309Z,99457.00
2022-09-11T03:22:56.588Z,99460.00
2022-09-11T03:24:29.637Z,99462.00
2022-09-11T03:26:05.508Z,99456.00
2022-09-11T03:27:39.445Z,99452.00
2022-09-11T03:29:15.184Z,99465.00
2022-09-11T03:30:50.620Z,99460.00
2022-09-11T03:32:24.137Z,99465.00
2022-09-11T03:34:02.200Z,99459.00
2022-09-11T03:35:36.344Z,99465.00
2022-09-11T03:37:09.869Z,99460.00
2022-09-11T03:38:45.332Z,99456.00
2022-09-11T03:40:21.877Z,99462.00
2022-09-11T03:41:54.483Z,99464.00
2022-09-11T03:43:29.415Z,99460.00
2022-09-11T03:45:09.403Z,99466.00
2022-09-11T03:46:42.789Z,99468.00
2022-09-11T03:48:16.395Z,99477.00
2022-09-11T03:49:51.093Z,99476.00
2022-09-11T03:51:27.713Z,99472.00
2022-09-11T03:53:03.013Z,99478.00
2022-09-11T03:54:36.299Z,99486.00
2022-09-11T03:56:11.165Z,99485.00
2022-09-11T03:57:51.234Z,99483.00
2022-09-11T03:59:25.835Z,99489.00
2022-09-11T04:01:01.023Z,99478.00
2022-09-11T04:02:37.347Z,99477.00
2022-09-11T04:04:11.108Z,99483.00
2022-09-11T04:06:01.958Z,99484.00
2022-09-11T04:07:39.706Z,99479.00
2022-09-11T04:09:13.329Z,99482.00
2022-09-11T04:10:50.936Z,99495.00
2022-09-11T04:12:24.703Z,99481.00
2022-09-11T04:14:00.358Z,99489.00
2022-09-11T04:15:34.184Z,99487.00
2022-09-11T04:17:09.774Z,99488.00
2022-09-11T04:18:51.225Z,99484.00
2022-09-11T04:20:24.245Z,99494.00
2022-09-11T04:21:59.377Z,99494.00
2022-09-11T04:23:32.299Z,99496.00
2022-09-11T04:25:12.402Z,99499.00
2022-09-11T04:26:47.217Z,99501.00
2022-09-11T04:28:32.301Z,99500.00
2022-09-11T04:30:08.353Z,99496.00
2022-09-11T04:31:42.276Z,99492.00
2022-09-11T04:33:17.558Z,99505.00
2022-09-11T04:34:52.314Z,99501.00
2022-09-11T04:36:27.002Z,99503.00
2022-09-11T04:38:02.495Z,99509.00
2022-09-11T04:39:36.569Z,99504.00
2022-09-11T04:41:11.297Z,99506.00
2022-09-11T04:42:46.257Z,99506.00
2022-09-11T04:44:20.865Z,99507.00
2022-09-11T04:46:01.577Z,99513.00
2022-09-11T04:47:38.812Z,99512.00
2022-09-11T04:49:12.564Z,99509.00
2022-09-11T04:50:48.206Z,99510.00
2022-09-11T04:52:31.865Z,99508.00
2022-09-11T04:54:07.748Z,99509.00
2022-09-11T04:55:42.616Z,99513.00
2022-09-11T04:57:16.957Z,99519.00
2022-09-11T04:58:55.038Z,99510.00
2022-09-11T05:00:33.788Z,99519.00
2022-09-11T05:02:10.655Z,99519.00
2022-09-11T05:03:52.382Z,99524.00
2022-09-11T05:05:32.881Z,99511.00
2022-09-11T05:07:08.444Z,99519.00
2022-09-11T05:08:48.243Z,99513.00
2022-09-11T05:10:27.241Z,99521.00
2022-09-11T05:12:02.593Z,99514.00
2022-09-11T05:13:38.881Z,99521.00
2022-09-11T05:15:13.971Z,99522.00
2022-09-11T05:16:48.977Z,99530.00
2022-09-11T05:18:26.840Z,99529.00
2022-09-11T05:20:03.161Z,99517.00
2022-09-11T05:21:43.005Z,99530.00
2022-09-11T05:23:16.384Z,99535.00
2022-09-11T05:24:49.900Z,99533.00
2022-09-11T05:26:28.124Z,99533.00
2022-09-11T05:28:01.981Z,99529.00
2022-09-11T05:29:38.548Z,99524.00
2022-09-11T05:31:19.489Z,99533.00
2022-09-11T05:32:55.496Z,99537.00
2022-09-11T05:34:32.058Z,99542.00
2022-09-11T05:36:10.871Z,99536.00
2022-09-11T05:37:48.645Z,99533.00
2022-09-11T05:39:22.339Z,99539.00
2022-09-11T05:40:55.972Z,99549.00
2022-09-11T05:42:32.061Z,99543.00
2022-09-11T05:44:09.737Z,99550.00
2022-09-11T05:45:55.129Z,99548.00
2022-09-11T05:47:29.413Z,99543.00
2022-09-11T05:49:03.521Z,99555.00
2022-09-11T05:50:43.105Z,99555.00
2022-09-11T05:52:17.122Z,99555.00
2022-09-11T05:53:56.921Z,99557.00
2022-09-11T05:55:35.946Z,99552.00
2022-09-11T05:57:09.517Z,99572.00
2022-09-11T05:58:48.034Z,99567.00
2022-09-11T06:00:23.285Z,99571.00
2022-09-11T06:02:11.714Z,99570.00
2022-09-11T06:03:51.886Z,99580.00
2022-09-11T06:05:27.538Z,99581.00
2022-09-11T06:07:06.723Z,99587.00
2022-09-11T06:08:46.387Z,99585.00
2022-09-11T06:10:19.724Z,99592.00
2022-09-11T06:11:55.677Z,99593.00
2022-09-11T06:13:32.577Z,99589.00
2022-09-11T06:15:20.322Z,99585.00
2022-09-11T06:17:03.189Z,99595.00
2022-09-11T06:18:42.655Z,99587.00
2022-09-11T06:20:18.761Z,99596.00
2022-09-11T06:21:57.911Z,99594.00
2022-09-11T06:23:37.197Z,99593.00
2022-09-11T06:25:12.783Z,99593.00
2022-09-11T06:26:50.010Z,99595.00
2022-09-11T06:28:26.445Z,99598.00
2022-09-11T06:30:00.776Z,99600.00
2022-09-11T06:31:45.608Z,99598.00
2022-09-11T06:33:21.212Z,99602.00
2022-09-11T06:34:58.937Z,99600.00
2022-09-11T06:36:33.936Z,99603.00
2022-09-11T06:38:16.426Z,99600.00
2022-09-11T06:39:51.851Z,99600.00
2022-09-11T06:41:34.623Z,99598.00
2022-09-11T06:43:17.073Z,99607.00
2022-09-11T06:44:52.035Z,99610.00
2022-09-11T06:46:29.358Z,99614.00
2022-09-11T06:48:09.355Z,99605.00
2022-09-11T06:49:43.325Z,99603.00
2022-09-11T06:51:41.356Z,99607.00
2022-09-11T06:53:16.562Z,99605.00
2022-09-11T06:54:58.988Z,99610.00
2022-09-11T06:56:34.078Z,99609.00
2022-09-11T06:58:14.707Z,99614.00
2022-09-11T06:59:50.233Z,99617.00
2022-09-11T07:01:30.520Z,99620.00
2022-09-11T07:03:12.898Z,99609.00
2022-09-11T07:04:48.721Z,99619.00
2022-09-11T07:06:25.548Z,99616.00
2022-09-11T07:08:03.420Z,99614.00
2022-09-11T07:09:40.832Z,99618.00
2022-09-11T07:11:14.842Z,99620.00
2022-09-11T07:12:51.042Z,99615.00
2022-09-11T07:14:25.915Z,99619.00
2022-09-11T07:16:10.169Z,99608.00
2022-09-11T07:17:45.451Z,99612.00
2022-09-11T07:19:20.564Z,99610.00
2022-09-11T07:20:53.301Z,99616.00
2022-09-11T07:22:27.202Z,99612.00
2022-09-11T07:24:07.237Z,99616.00
2022-09-11T07:25:52.749Z,99605.00
2022-09-11T07:27:28.726Z,99615.00
2022-09-11T07:29:02.104Z,99616.00
2022-09-11T07:30:35.821Z,99615.00
2022-09-11T07:32:10.255Z,99617.00
2022-09-11T07:33:48.752Z,99616.00
2022-09-11T07:35:25.589Z,99617.00
2022-09-11T07:37:03.273Z,99619.00
2022-09-11T07:38:36.706Z,99627.00
2022-09-11T07:40:12.890Z,99622.00
2022-09-11T07:41:49.302Z,99629.00
2022-09-11T07:43:35.036Z,99629.00
2022-09-11T07:45:10.062Z,99635.00
2022-09-11T07:46:43.412Z,99636.00
2022-09-11T07:48:18.776Z,99637.00
2022-09-11T07:49:56.856Z,99634.00
2022-09-11T07:51:34.776Z,99639.00
2022-09-11T07:53:13.473Z,99638.00
2022-09-11T07:54:52.761Z,99643.00
2022-09-11T07:56:33.622Z,99644.00
2022-09-11T07:58:08.824Z,99634.00
2022-09-11T07:59:44.085Z,99639.00
2022-09-11T08:01:20.925Z,99638.00
2022-09-11T08:02:54.493Z,99642.00
2022-09-11T08:04:38.040Z,99646.00
2022-09-11T08:06:18.924Z,99652.00
2022-09-11T08:08:00.132Z,99648.00
2022-09-11T08:09:34.625Z,99644.00
2022-09-11T08:11:14.780Z,99651.00
2022-09-11T08:12:50.864Z,99653.00
2022-09-11T08:14:25.085Z,99650.00
2022-09-11T08:16:00.738Z,99659.00
2022-09-11T08:17:36.599Z,99659.00
2022-09-11T08:19:17.671Z,99660.00
2022-09-11T08:20:53.270Z,99660.00
2022-09-11T08:22:29.357Z,99665.00
2022-09-11T08:24:04.842Z,99668.00
2022-09-11T08:25:38.965Z,99662.00
2022-09-11T08:27:13.742Z,99663.00
2022-09-11T08:28:52.699Z,99676.00
2022-09-11T08:30:26.752Z,99672.00
2022-09-11T08:32:02.337Z,99677.00
2022-09-11T08:33:37.554Z,99677.00
2022-09-11T08:35:11.374Z,99674.00
2022-09-11T08:36:46.549Z,99682.00
2022-09-11T08:38:19.875Z,99679.00
2022-09-11T08:39:58.092Z,99678.00
2022-09-11T08:41:46.262Z,99679.00
2022-09-11T08:43:28.074Z,99684.00
2022-09-11T08:45:07.832Z,99683.00
2022-09-11T08:46:53.866Z,99681.00
2022-09-11T08:48:37.070Z,99681.00
2022-09-11T08:50:23.134Z,99686.00
2022-09-11T08:52:05.809Z,99683.00
2022-09-11T08:53:41.209Z,99693.00
2022-09-11T08:55:24.206Z,99685.00
2022-09-11T08:57:16.798Z,99690.00
2022-09-11T08:59:27.189Z,99685.00
2022-09-11T09:01:24.040Z,99696.00
2022-09-11T09:03:34.643Z,99696.00
2022-09-11T09:05:32.502Z,99698.00
2022-09-11T09:07:20.765Z,99698.00
2022-09-11T09:09:10.265Z,99697.00
2022-09-11T09:10:56.569Z,99697.00
2022-09-11T09:12:43.246Z,99703.00
2022-09-11T09:14:48.744Z,99697.00
2022-09-11T09:16:41.653Z,99704.00
2022-09-11T09:18:29.921Z,99705.00
2022-09-11T09:20:13.014Z,99703.00
2022-09-11T09:22:03.521Z,99707.00
2022-09-11T09:23:44.450Z,99709.00
2022-09-11T09:25:27.156Z,99705.00
2022-09-11T09:27:06.127Z,99710.00
2022-09-11T09:28:47.210Z,99702.00
2022-09-11T09:30:27.283Z,99720.00
2022-09-11T09:32:15.280Z,99714.00
2022-09-11T09:33:59.786Z,99714.00
2022-09-11T09:35:44.357Z,99706.00
2022-09-11T09:37:28.215Z,99719.00
2022-09-11T09:39:03.769Z,99714.00
2022-09-11T09:40:53.663Z,99721.00
2022-09-11T09:43:02.337Z,99713.00
2022-09-11T09:44:57.196Z,99713.00
2022-09-11T09:46:43.472Z,99722.00
2022-09-11T09:48:19.777Z,99727.00
2022-09-11T09:49:56.960Z,99725.00
2022-09-11T09:51:35.257Z,99728.00
2022-09-11T09:53:30.372Z,99732.00
2022-09-11T09:55:08.398Z,99718.00
2022-09-11T09:56:49.411Z,99717.00
2022-09-11T09:58:26.010Z,99719.00
2022-09-11T10:00:06.787Z,99720.00
2022-09-11T10:01:50.862Z,99718.00
2022-09-11T10:03:27.617Z,99721.00
2022-09-11T10:05:21.755Z,99711.00
2022-09-11T10:07:11.317Z,99718.00
2022-09-11T10:08:44.633Z,99722.00
2022-09-11T10:10:37.548Z,99718.00
2022-09-11T10:12:22.546Z,99717.00
2022-09-11T10:13:59.607Z,99716.00
2022-09-11T10:15:40.689Z,99720.00
2022-09-11T10:17:26.766Z,99714.00
2022-09-11T10:19:41.478Z,99719.00
2022-09-11T10:21:25.006Z,99717.00
2022-09-11T10:23:25.655Z,99714.00
2022-09-11T10:25:13.751Z,99712.00
2022-09-11T10:26:52.954Z,99705.00
2022-09-11T10:28:33.308Z,99696.00
2022-09-11T10:30:27.777Z,99707.00
2022-09-11T10:32:03.876Z,99704.00
2022-09-11T10:33:42.173Z,99709.00
2022-09-11T10:35:20.997Z,99707.00
2022-09-11T10:37:04.167Z,99706.00
2022-09-11T10:38:50.689Z,99708.00
2022-09-11T10:40:23.979Z,99711.00
2022-09-11T10:42:05.365Z,99710.00
2022-09-11T10:43:53.121Z,99715.00
2022-09-11T10:45:28.929Z,99708.00
2022-09-11T10:47:15.151Z,99712.00
2022-09-11T10:48:55.133Z,99717.00
2022-09-11T10:50:34.957Z,99705.00
2022-09-11T10:52:22.189Z,99706.00
2022-09-11T10:54:13.506Z,99709.00
2022-09-11T10:55:58.837Z,99722.00
2022-09-11T10:57:41.409Z,99715.00
2022-09-11T10:59:25.974Z,99722.00
2022-09-11T11:00:59.772Z,99718.00
2022-09-11T11:02:36.770Z,99716.00
2022-09-11T11:04:12.955Z,99717.00
2022-09-11T11:06:03.996Z,99712.00
2022-09-11T11:08:05.897Z,99708.00
2022-09-11T11:09:57.219Z,99722.00
2022-09-11T11:11:52.845Z,99717.00
2022-09-11T11:13:49.438Z,99710.00
2022-09-11T11:15:44.089Z,99708.00
2022-09-11T11:17:35.489Z,99709.00
2022-09-11T11:19:43.424Z,99707.00
2022-09-11T11:21:39.593Z,99708.00
2022-09-11T11:23:53.171Z,99709.00
2022-09-11T11:25:42.113Z,99698.00
2022-09-11T11:27:51.258Z,99712.00
2022-09-11T11:30:00.952Z,99716.00
2022-09-11T11:31:55.582Z,99708.00
2022-09-11T11:34:14.129Z,99716.00
2022-09-11T11:36:01.158Z,99707.00
2022-09-11T11:37:42.697Z,99709.00
2022-09-11T11:39:29.111Z,99714.00
2022-09-11T11:41:10.911Z,99717.00
2022-09-11T11:42:53.984Z,99715.00
2022-09-11T11:44:40.765Z,99712.00
2022-09-11T11:46:20.722Z,99710.00
2022-09-11T11:47:56.070Z,99715.00
2022-09-11T11:49:55.898Z,99717.00
2022-09-11T11:51:39.956Z,99714.00
2022-09-11T11:53:25.011Z,99715.00
2022-09-11T11:55:13.629Z,99716.00
2022-09-11T11:56:51.949Z,99711.00
2022-09-11T11:58:41.773Z,99714.00
2022-09-11T12:00:19.228Z,99710.00
2022-09-11T12:02:02.399Z,99707.00
2022-09-11T12:03:47.760Z,99719.00
2022-09-11T12:05:30.158Z,99709.00
2022-09-11T12:07:06.466Z,99711.00
2022-09-11T12:08:46.768Z,99717.00
2022-09-11T12:10:31.271Z,99714.00
2022-09-11T12:12:08.489Z,99718.00
2022-09-11T12:13:49.085Z,99721.00
2022-09-11T12:15:28.265Z,99717.00
2022-09-11T12:17:25.401Z,99718.00
2022-09-11T12:19:10.822Z,99721.00
2022-09-11T12:20:47.633Z,99726.00
2022-09-11T12:22:35.971Z,99735.00
2022-09-11T12:24:22.977Z,99727.00
2022-09-11T12:26:20.369Z,99738.00
2022-09-11T12:28:10.252Z,99727.00
2022-09-11T12:29:59.737Z,99718.00
2022-09-11T12:32:29.119Z,99728.00
2022-09-11T12:34:03.944Z,99739.00
2022-09-11T12:35:49.081Z,99726.00
2022-09-11T12:37:33.190Z,99731.00
2022-09-11T12:39:32.067Z,99736.00
2022-09-11T12:41:14.840Z,99729.00
2022-09-11T12:43:09.128Z,99732.00
2022-09-11T12:45:04.848Z,99724.00
2022-09-11T12:47:18.310Z,99729.00
2022-09-11T12:49:20.490Z,99723.00
2022-09-11T12:50:58.117Z,99722.00
2022-09-11T12:52:42.851Z,99726.00
2022-09-11T12:54:26.551Z,99720.00
2022-09-11T12:56:04.477Z,99721.00
2022-09-11T12:57:40.809Z,99720.00
2022-09-11T12:59:25.814Z,99717.00
2022-09-11T13:01:14.392Z,99730.00
2022-09-11T13:02:58.529Z,99720.00
2022-09-11T13:04:38.544Z,99727.00
2022-09-11T13:06:14.594Z,99728.00
2022-09-11T13:07:54.930Z,99731.00
2022-09-11T13:09:33.835Z,99723.00
2022-09-11T13:11:47.222Z,99725.00
2022-09-11T13:13:49.542Z,99727.00
2022-09-11T13:15:42.345Z,99724.00
2022-09-11T13:17:25.952Z,99726.00
2022-09-11T13:19:11.930Z,99714.00
2022-09-11T13:21:00.620Z,99721.00
2022-09-11T13:22:37.745Z,99716.00
2022-09-11T13:24:25.273Z,99714.00
2022-09-11T13:26:01.620Z,99721.00
2022-09-11T13:27:40.532Z,99728.00
2022-09-11T13:29:20.161Z,99721.00
2022-09-11T13:31:00.560Z,99712.00
2022-09-11T13:32:35.732Z,99715.00
2022-09-11T13:34:18.604Z,99714.00
2022-09-11T13:35:55.008Z,99718.00
2022-09-11T13:37:37.908Z,99712.00
2022-09-11T13:39:15.606Z,99705.00
2022-09-11T13:40:57.006Z,99708.00
2022-09-11T13:42:35.821Z,99706.00
2022-09-11T13:44:39.554Z,99705.00
2022-09-11T13:46:24.580Z,99706.00
2022-09-11T13:47:58.359Z,99697.00
2022-09-11T13:49:39.541Z,99701.00
2022-09-11T13:51:21.041Z,99703.00
2022-09-11T13:52:55.918Z,99698.00
2022-09-11T13:54:32.933Z,99699.00
2022-09-11T13:56:07.199Z,99700.00
2022-09-11T13:57:56.063Z,99700.00
2022-09-11T13:59:44.549Z,99698.00
2022-09-11T14:01:19.272Z,99703.00
2022-09-11T14:02:54.454Z,99698.00
2022-09-11T14:04:29.178Z,99700.00
2022-09-11T14:06:14.297Z,99700.00
2022-09-11T14:08:01.291Z,99691.00
2022-09-11T14:09:40.902Z,99694.00
2022-09-11T14:11:29.899Z,99702.00
2022-09-11T14:13:27.568Z,99689.00
2022-09-11T14:15:20.254Z,99693.00
2022-09-11T14:17:01.252Z,99687.00
2022-09-11T14:18:41.789Z,99687.00
2022-09-11T14:20:25.290Z,99685.00
2022-09-11T14:22:01.309Z,99689.00
2022-09-11T14:23:48.055Z,99690.00
2022-09-11T14:25:24.697Z,99697.00
2022-09-11T14:26:58.219Z,99684.00
2022-09-11T14:28:42.401Z,99682.00
2022-09-11T14:30:36.271Z,99683.00
2022-09-11T14:32:33.893Z,99686.00
2022-09-11T14:34:19.765Z,99679.00
2022-09-11T14:36:06.999Z,99672.00
2022-09-11T14:37:49.793Z,99673.00
2022-09-11T14:39:46.099Z,99679.00
2022-09-11T14:41:21.610Z,99666.00
2022-09-11T14:42:57.123Z,99666.00
2022-09-11T14:44:33.820Z,99666.00
2022-09-11T14:46:09.778Z,99666.00
2022-09-11T14:47:47.039Z,99660.00
2022-09-11T14:49:30.431Z,99668.00
2022-09-11T14:51:12.760Z,99666.00
2022-09-11T14:52:50.166Z,99660.00
2022-09-11T14:54:29.175Z,99661.00
2022-09-11T14:56:06.028Z,99668.00
2022-09-11T14:57:46.453Z,99662.00
2022-09-11T14:59:22.044Z,99663.00
2022-09-11T15:00:56.967Z,99666.00
2022-09-11T15:02:30.765Z,99665.00
2022-09-11T15:04:05.300Z,99668.00
2022-09-11T15:05:46.220Z,99663.00
2022-09-11T15:07:24.868Z,99660.00
2022-09-11T15:09:03.705Z,99665.00
2022-09-11T15:10:39.853Z,99675.00
2022-09-11T15:12:15.833Z,99674.00
2022-09-11T15:14:13.438Z,99674.00
2022-09-11T15:15:43.048Z,99672.00
2022-09-11T15:17:20.108Z,99673.00
2022-09-11T15:18:54.519Z,99666.00
2022-09-11T15:20:30.885Z,99658.00
2022-09-11T15:22:11.619Z,99668.00
2022-09-11T15:23:49.465Z,99661.00
2022-09-11T15:25:23.820Z,99663.00
2022-09-11T15:26:57.610Z,99661.00
2022-09-11T15:28:33.788Z,99661.00
2022-09-11T15:30:13.335Z,99657.00
2022-09-11T15:31:47.234Z,99654.00
2022-09-11T15:33:22.143Z,99652.00
2022-09-11T15:34:55.686Z,99647.00
2022-09-11T15:36:33.614Z,99641.00
2022-09-11T15:38:09.884Z,99635.00
2022-09-11T15:39:45.060Z,99636.00
2022-09-11T15:41:21.868Z,99630.00
2022-09-11T15:43:03.960Z,99636.00
2022-09-11T15:44:41.802Z,99629.00
2022-09-11T15:46:18.135Z,99630.00
2022-09-11T15:47:51.902Z,99640.00
2022-09-11T15:49:28.037Z,99632.00
2022-09-11T15:51:13.157Z,99626.00
2022-09-11T15:52:47.273Z,99625.00
2022-09-11T15:54:24.832Z,99624.00
2022-09-11T15:56:06.917Z,99624.00
2022-09-11T15:57:42.992Z,99625.00
2022-09-11T15:59:18.922Z,99627.00
2022-09-11T16:00:58.587Z,99626.00
2022-09-11T16:02:32.436Z,99622.00
2022-09-11T16:04:09.019Z,99625.00
2022-09-11T16:05:48.273Z,99618.00
2022-09-11T16:07:23.560Z,99624.00
2022-09-11T16:09:01.797Z,99618.00
2022-09-11T16:10:40.585Z,99628.00
2022-09-11T16:12:15.794Z,99623.00
2022-09-11T16:13:50.700Z,99626.00
2022-09-11T16:15:23.980Z,99632.00
2022-09-11T16:17:00.317Z,99631.00
2022-09-11T16:18:40.203Z,99628.00
2022-09-11T16:20:16.229Z,99629.00
2022-09-11T16:21:50.053Z,99631.00
2022-09-11T16:23:24.455Z,99623.00
2022-09-11T16:25:04.042Z,99619.00
2022-09-11T16:26:38.247Z,99625.00
2022-09-11T16:28:11.861Z,99623.00
2022-09-11T16:31:41.962Z,99625.00
2022-09-11T16:33:19.347Z,99621.00
2022-09-11T16:34:54.008Z,99620.00
2022-09-11T16:36:31.405Z,99627.00
2022-09-11T16:38:07.026Z,99624.00
2022-09-11T16:39:47.163Z,99629.00
2022-09-11T16:41:26.290Z,99625.00
2022-09-11T16:42:59.736Z,99623.00
2022-09-11T16:44:35.653Z,99628.00
2022-09-11T16:46:09.630Z,99629.00
2022-09-11T16:47:43.087Z,99617.00
2022-09-11T16:49:19.906Z,99618.00
2022-09-11T16:50:54.663Z,99618.00
2022-09-11T16:52:28.938Z,99611.00
2022-09-11T16:54:03.456Z,99614.00
2022-09-11T16:55:39.529Z,99611.00
2022-09-11T16:57:13.011Z,99614.00
2022-09-11T16:58:48.870Z,99611.00
2022-09-11T17:00:22.737Z,99618.00
2022-09-11T17:01:57.368Z,99608.00
2022-09-11T17:03:36.169Z,99609.00
2022-09-11T17:05:19.381Z,99610.00
2022-09-11T17:06:56.388Z,99606.00
2022-09-11T17:08:31.024Z,99611.00
2022-09-11T17:10:04.839Z,99609.00
2022-09-11T17:11:38.500Z,99614.00
2022-09-11T17:13:11.879Z,99607.00
2022-09-11T17:14:45.185Z,99602.00
2022-09-11T17:16:23.672Z,99607.00
2022-09-11T17:17:57.100Z,99606.00
2022-09-11T17:19:30.332Z,99594.00
2022-09-11T17:21:08.400Z,99591.00
2022-09-11T17:22:41.752Z,99602.00
2022-09-11T17:24:17.887Z,99610.00
2022-09-11T17:25:51.508Z,99608.00
2022-09-11T17:27:24.825Z,99613.00
2022-09-11T17:29:02.917Z,99614.00
2022-09-11T17:30:40.079Z,99608.00
2022-09-11T17:32:31.165Z,99613.00
2022-09-11T17:34:05.042Z,99616.00
2022-09-11T17:35:37.582Z,99610.00
2022-09-11T17:37:12.254Z,99611.00
2022-09-11T17:38:48.194Z,99608.00
2022-09-11T17:40:22.841Z,99603.00
2022-09-11T17:41:56.245Z,99612.00
2022-09-11T17:43:29.662Z,99609.00
2022-09-11T17:45:03.696Z,99608.00
2022-09-11T17:46:37.367Z,99611.00
2022-09-11T17:48:10.633Z,99608.00
2022-09-11T17:49:44.695Z,99620.00
2022-09-11T17:51:21.689Z,99612.00
2022-09-11T17:52:56.328Z,99607.00
2022-09-11T17:54:29.714Z,99609.00
2022-09-11T17:56:05.988Z,99621.00
2022-09-11T17:57:42.145Z,99621.00
2022-09-11T17:59:15.574Z,99618.00
2022-09-11T18:00:49.394Z,99624.00
2022-09-11T18:02:23.716Z,99622.00
2022-09-11T18:03:59.285Z,99627.00
2022-09-11T18:05:33.726Z,99630.00
2022-09-11T18:07:07.767Z,99629.00
2022-09-11T18:08:42.924Z,99627.00
2022-09-11T18:10:16.941Z,99627.00
2022-09-11T18:11:53.970Z,99633.00
2022-09-11T18:13:29.108Z,99628.00
2022-09-11T18:15:03.676Z,99631.00
2022-09-11T18:16:37.958Z,99634.00
2022-09-11T18:18:11.495Z,99628.00
2022-09-11T18:19:44.980Z,99627.00
2022-09-11T18:21:19.382Z,99632.00
2022-09-11T18:22:53.617Z,99633.00
2022-09-11T18:24:29.978Z,99635.00
2022-09-11T18:26:03.513Z,99641.00
2022-09-11T18:27:37.042Z,99636.00
2022-09-11T18:29:15.347Z,99626.00
2022-09-11T18:30:50.001Z,99627.00
2022-09-11T18:32:23.664Z,99624.00
2022-09-11T18:34:00.303Z,99625.00
2022-09-11T18:35:34.898Z,99623.00
2022-09-11T18:37:08.900Z,99621.00
2022-09-11T18:38:42.283Z,99626.00
2022-09-11T18:40:17.189Z,99624.00
2022-09-11T18:41:52.736Z,99632.00
2022-09-11T18:43:26.623Z,99635.00
2022-09-11T18:45:00.077Z,99638.00
2022-09-11T18:46:33.954Z,99635.00
2022-09-11T18:48:07.514Z,99625.00
2022-09-11T18:49:41.120Z,99635.00
2022-09-11T18:51:16.026Z,99636.00
2022-09-11T18:52:51.933Z,99632.00
2022-09-11T18:54:27.515Z,99641.00
2022-09-11T18:56:03.438Z,99637.00
2022-09-11T18:57:41.180Z,99641.00
2022-09-11T18:59:15.945Z,99636.00
2022-09-11T19:00:49.373Z,99636.00
2022-09-11T19:02:22.171Z,99634.00
2022-09-11T19:04:00.067Z,99634.00
2022-09-11T19:05:34.085Z,99636.00
2022-09-11T19:07:11.896Z,99624.00
2022-09-11T19:08:48.080Z,99632.00
2022-09-11T19:10:24.753Z,99627.00
2022-09-11T19:12:00.296Z,99619.00
2022-09-11T19:13:33.881Z,99633.00
2022-09-11T19:15:09.445Z,99624.00
2022-09-11T19:16:43.418Z,99636.00
2022-09-11T19:18:21.515Z,99634.00
2022-09-11T19:20:01.321Z,99631.00
2022-09-11T19:21:36.406Z,99628.00
2022-09-11T19:23:15.067Z,99632.00
2022-09-11T19:24:53.092Z,99629.00
2022-09-11T19:26:30.154Z,99629.00
2022-09-11T19:28:05.342Z,99627.00
2022-09-11T19:29:44.138Z,99630.00
2022-09-11T19:31:21.485Z,99627.00
2022-09-11T19:32:56.262Z,99621.00
2022-09-11T19:34:31.130Z,99630.00
2022-09-11T19:36:09.275Z,99635.00
2022-09-11T19:37:42.954Z,99637.00
2022-09-11T19:39:17.082Z,99636.00
2022-09-11T19:40:51.140Z,99626.00